Sunday, April 20, 2014
13:20 UTC
  |  Log In   |  Register Free
Airport Search:

Shenandoah Valley Regional Airport
(KSHD)

Shenandoah Valley Regional Airport Diagram
No Airport Diagram Available

FAA data valid effective April 3, 2014 until May 29, 2014 (unless otherwise noted).

 
 
 
 
 
 
 
 
 
 
 
 
 
 

Current Aviation Weather for Shenandoah Valley Regional Airport (KSHD)

The most recent METAR observation for KSHD was updated at: 1255 UTC
METAR Summary (Translated METAR)
KSHD
201255Z AUTO 05005KT 10SM CLR 08/01 A3038 RMK AO2 T00840006
KCHO
(22.2 nm SE from KSHD)
201253Z 08007KT 10SM CLR 10/M01 A3036 RMK AO2 SLP280 T01001006
TAF Summary (Translated TAF)
KCHO
(22.2 nm SE from KSHD)
201140Z 2012/2112 04004KT P6SM BKN250 FM201400 05009KT P6SM BKN250 FM201900 06005KT P6SM SCT250 FM210000 08009KT P6SM FEW250 FM210200 06004KT P6SM FEW250 FM210300 00000KT P6SM FEW250
  Airport Weather Conditions for KSHD

 Current Weather at SHD
46° F
Fair
Northeast winds at 6.9 mph
SHD NOAA Radar

Pressure: 30.38 in
Humidity: 59%
Wind: Northeast at 6.9 MPH (6 KT)
Dew Point: 32.4°F
Visibility: 10.00 mi


Airport Weather Forecast for KSHD

Translated METAR and TAF for KSHD
Translated METAR for KSHD (1321 UTC 20 April 2014)
found at http://aviationweather.gov/adds/metars/
 
METAR text: KSHD 201255Z AUTO 05005KT 10SM CLR 08/01 A3038 RMK AO2 T00840006
Conditions at: KSHD (STAUNTON/SHENAND, VA, US) observed 1255 UTC 20 April 2014
Temperature: 8.4°C (47°F)
Dewpoint: 0.6°C (33°F) [RH = 58%]
Pressure (altimeter): 30.38 inches Hg (1028.9 mb)
Winds: from the NE (50 degrees) at 6 MPH (5 knots; 2.6 m/s)
Visibility: 10 or more miles (16+ km)
Ceiling: at least 12,000 feet AGL
Clouds: sky clear below 12,000 feet AGL
Weather: automated observation with no human augmentation;
there may or may not be significant weather present at this time
Translated TAF for KSHD

There is no translated TAF available for this airport

Find All Airport Services Find A Hotel Find A Rental Car Find A Golf Course Find A Restaurant $100 Hamburger



FBO's on the Field
FBO Company Facility Photos Services Transportation Aviation Fuel Prices: Prices include tax
Catering Weather Repair Courtesy Rental Type 100LL JetA JetA+ MOGAS 8087
 
Avnet Shenandoah Valley

This FBO has not yet been rated
FS:Avfuel
Last Updated: Apr-01
Login to update fuel prices
SS:
Contact Avnet Shenandoah ValleyMore FBO Information
 
Add another FBO Facility Photos Catering Weather Repair Courtesy Rental Type 100LL JetA JetA+ MOGAS 8087
Services Transportation Aviation Fuel Prices: Prices include tax


GlobalAir.com Airport Resource Center model-print
model-print
model-print
model-print